Time;durP1;ratioP1;P1;durP2;ratioP2;P2;SDS_P1;SDS_P2;PMS_P1;PMS_P2;Temp;Humidity;BMP_temperature;BMP_pressure;BME280_temperature;BME280_humidity;BME280_pressure;Samples;Min_cycle;Max_cycle;Signal;HPM_P1;HPM_P2
2023/03/24 00:00:12;;;;;;;3.30;2.93;;;14.00;99.90;;;;;;5032857;28;20652;-47
2023/03/24 00:02:40;;;;;;;3.93;2.80;;;14.00;99.90;;;;;;5031494;28;20296;-48
2023/03/24 00:05:09;;;;;;;4.30;2.70;;;14.00;99.90;;;;;;5033401;28;20260;-47
2023/03/24 00:07:38;;;;;;;4.37;2.83;;;14.00;99.90;;;;;;5034004;28;20226;-48
2023/03/24 00:10:08;;;;;;;3.00;2.90;;;14.00;99.90;;;;;;5034404;28;20224;-48
2023/03/24 00:12:37;;;;;;;4.33;3.33;;;13.90;99.90;;;;;;5031892;28;20206;-49
2023/03/24 00:15:08;;;;;;;3.10;2.90;;;13.90;99.90;;;;;;5032928;28;20702;-48
2023/03/24 00:17:35;;;;;;;2.90;2.73;;;14.00;99.90;;;;;;5024093;28;20673;-47
2023/03/24 00:20:11;;;;;;;2.67;2.47;;;14.00;99.90;;;;;;5033403;28;20233;-49
2023/03/24 00:22:41;;;;;;;2.97;2.67;;;14.00;99.90;;;;;;5031847;28;20199;-48
2023/03/24 00:25:09;;;;;;;4.10;3.80;;;14.00;99.90;;;;;;5031158;28;20195;-47
2023/03/24 00:27:37;;;;;;;5.10;4.30;;;14.10;99.90;;;;;;5033498;28;20276;-47
2023/03/24 00:30:10;;;;;;;4.40;4.10;;;14.10;99.90;;;;;;5028372;28;20225;-47
2023/03/24 00:32:37;;;;;;;5.50;5.10;;;14.00;99.90;;;;;;5029951;28;20208;-48
2023/03/24 00:35:07;;;;;;;4.77;4.43;;;13.70;99.90;;;;;;5033385;28;20227;-48
2023/03/24 00:37:36;;;;;;;4.37;4.13;;;13.50;99.90;;;;;;5031650;28;20206;-48
2023/03/24 00:40:07;;;;;;;6.07;4.47;;;13.40;99.90;;;;;;5032398;28;20219;-49
2023/03/24 00:42:34;;;;;;;5.20;4.80;;;13.30;99.90;;;;;;5032531;28;20197;-47
2023/03/24 00:45:02;;;;;;;5.57;5.07;;;13.20;99.90;;;;;;5026305;28;20683;-48
2023/03/24 00:47:35;;;;;;;4.60;4.27;;;13.10;99.90;;;;;;5032922;28;20191;-48
2023/03/24 00:50:03;;;;;;;7.47;4.73;;;13.10;99.90;;;;;;5030882;28;20656;-47
2023/03/24 00:52:33;;;;;;;6.53;4.90;;;13.10;99.90;;;;;;5031626;28;20222;-47
2023/03/24 00:55:01;;;;;;;6.10;5.10;;;13.20;99.90;;;;;;5022396;28;20224;-47
2023/03/24 00:57:33;;;;;;;6.07;5.57;;;13.10;99.90;;;;;;5032808;28;20594;-48
2023/03/24 01:00:13;;;;;;;6.20;5.63;;;13.00;99.90;;;;;;5016540;28;20241;-47
2023/03/24 01:02:42;;;;;;;5.50;5.07;;;12.90;99.90;;;;;;5028653;28;20653;-48
2023/03/24 01:05:09;;;;;;;5.33;4.80;;;12.80;99.90;;;;;;5032861;28;20289;-48
2023/03/24 01:07:40;;;;;;;5.90;4.60;;;12.90;99.90;;;;;;5033013;28;20210;-48
2023/03/24 01:10:08;;;;;;;6.97;5.50;;;12.80;99.90;;;;;;5032981;28;20293;-48
2023/03/24 01:12:37;;;;;;;5.53;5.03;;;12.70;99.90;;;;;;5032015;28;20206;-48
2023/03/24 01:15:07;;;;;;;5.33;4.90;;;12.60;99.90;;;;;;5030205;28;20214;-48
2023/03/24 01:17:34;;;;;;;4.83;4.53;;;12.60;99.90;;;;;;5027978;28;20202;-49
2023/03/24 01:20:06;;;;;;;5.60;4.70;;;12.50;99.90;;;;;;5031517;28;20682;-47
2023/03/24 01:22:38;;;;;;;5.47;5.07;;;12.50;99.90;;;;;;5031668;28;20206;-47
2023/03/24 01:25:08;;;;;;;6.03;5.57;;;12.40;99.90;;;;;;5031451;28;20194;-49
2023/03/24 01:27:35;;;;;;;5.20;4.70;;;12.50;99.90;;;;;;5032227;28;20205;-46
2023/03/24 01:30:04;;;;;;;5.63;5.10;;;12.50;99.90;;;;;;5032227;28;20218;-47
2023/03/24 01:32:31;;;;;;;4.13;3.83;;;12.40;99.90;;;;;;5030928;28;20236;-48
2023/03/24 01:34:58;;;;;;;4.73;4.43;;;12.60;99.90;;;;;;5024572;28;20217;-49
2023/03/24 01:37:27;;;;;;;5.70;5.10;;;12.60;99.90;;;;;;5030974;28;20663;-47
2023/03/24 01:39:54;;;;;;;6.00;5.60;;;12.60;99.90;;;;;;5032328;28;20220;-48
2023/03/24 01:42:23;;;;;;;6.23;5.07;;;12.60;99.90;;;;;;5028020;28;20205;-48
2023/03/24 01:44:51;;;;;;;6.57;5.93;;;12.70;99.90;;;;;;5030592;28;20557;-48
2023/03/24 01:47:18;;;;;;;5.43;5.03;;;12.60;99.90;;;;;;5032051;28;20193;-47
2023/03/24 01:49:51;;;;;;;6.00;5.50;;;12.50;99.90;;;;;;5029875;28;20232;-47
2023/03/24 01:52:22;;;;;;;6.90;5.27;;;12.40;99.90;;;;;;5028535;28;20204;-47
2023/03/24 01:54:53;;;;;;;6.73;6.17;;;12.40;99.90;;;;;;5030618;28;20238;-47
2023/03/24 01:57:24;;;;;;;5.20;4.73;;;12.40;99.90;;;;;;5031787;28;20286;-47
2023/03/24 01:59:55;;;;;;;6.43;5.77;;;12.30;99.90;;;;;;5031955;28;20218;-49
2023/03/24 02:02:22;;;;;;;7.00;6.30;;;12.20;99.90;;;;;;5030137;28;20199;-48
2023/03/24 02:04:53;;;;;;;6.70;6.03;;;12.20;99.90;;;;;;5029597;28;20212;-47
2023/03/24 02:07:29;;;;;;;5.97;5.47;;;12.20;99.90;;;;;;5029999;28;20560;-47
2023/03/24 02:09:58;;;;;;;10.13;5.80;;;12.20;99.90;;;;;;5031617;28;20713;-47
2023/03/24 02:12:25;;;;;;;7.23;6.63;;;12.20;99.90;;;;;;5031279;28;20207;-46
2023/03/24 02:14:53;;;;;;;6.37;5.93;;;12.10;99.90;;;;;;5030301;28;20217;-48
2023/03/24 02:17:48;;;;;;;7.63;5.87;;;12.00;99.90;;;;;;5031645;28;20707;-48
2023/03/24 02:20:51;;;;;;;8.60;6.03;;;12.00;99.90;;;;;;5030187;28;20232;-48
2023/03/24 02:24:00;;;;;;;6.60;5.73;;;12.00;99.90;;;;;;5020720;28;20200;-47
2023/03/24 02:27:01;;;;;;;5.70;5.30;;;11.90;99.90;;;;;;5021425;28;20618;-48
2023/03/24 02:30:10;;;;;;;7.33;6.57;;;11.90;99.90;;;;;;5023301;28;20656;-50
2023/03/24 02:33:21;;;;;;;6.33;5.53;;;11.90;99.90;;;;;;5028936;28;20674;-47
2023/03/24 02:36:14;;;;;;;6.23;5.53;;;11.90;99.90;;;;;;5001363;28;20224;-47
2023/03/24 02:39:15;;;;;;;6.47;6.07;;;11.80;99.90;;;;;;5030682;28;20218;-47
2023/03/24 02:41:50;;;;;;;6.57;5.17;;;11.80;99.90;;;;;;5030407;28;20208;-47
2023/03/24 02:44:22;;;;;;;5.60;5.20;;;11.80;99.90;;;;;;5030881;28;20701;-48
2023/03/24 02:46:54;;;;;;;6.57;5.43;;;11.80;99.90;;;;;;5031709;28;20276;-49
2023/03/24 02:49:29;;;;;;;5.10;4.60;;;11.90;99.90;;;;;;5030384;28;20900;-47
2023/03/24 02:52:04;;;;;;;5.90;5.40;;;11.90;99.90;;;;;;5030750;28;20250;-48
2023/03/24 02:54:41;;;;;;;4.87;4.57;;;12.00;99.90;;;;;;5034491;28;20190;-47
2023/03/24 02:57:18;;;;;;;5.67;5.27;;;12.00;99.90;;;;;;5034686;28;20553;-46
2023/03/24 02:59:54;;;;;;;5.83;5.33;;;12.00;99.90;;;;;;5026627;28;20226;-48
2023/03/24 03:02:25;;;;;;;5.33;4.90;;;12.10;99.90;;;;;;5032054;28;20200;-47
2023/03/24 03:04:55;;;;;;;6.07;5.57;;;12.10;99.90;;;;;;5033474;28;20208;-48
2023/03/24 03:07:28;;;;;;;6.47;5.80;;;12.10;99.90;;;;;;5035259;28;20211;-48
2023/03/24 03:10:00;;;;;;;6.37;5.70;;;12.10;99.90;;;;;;5034930;28;20308;-48
2023/03/24 03:12:33;;;;;;;7.90;6.57;;;12.10;99.90;;;;;;5035129;28;20203;-49
2023/03/24 03:15:04;;;;;;;12.80;7.33;;;12.00;99.90;;;;;;5031360;28;20211;-47
2023/03/24 03:17:37;;;;;;;7.00;6.30;;;12.00;99.90;;;;;;5032844;28;20958;-48
2023/03/24 03:20:10;;;;;;;8.20;6.67;;;12.00;99.90;;;;;;5034763;28;20218;-47
2023/03/24 03:22:48;;;;;;;7.80;7.10;;;12.00;99.90;;;;;;5033290;28;20201;-49
2023/03/24 03:25:21;;;;;;;6.93;6.33;;;12.10;99.90;;;;;;5033816;28;20665;-47
2023/03/24 03:27:52;;;;;;;8.53;7.20;;;12.20;99.90;;;;;;5033422;28;20204;-47
2023/03/24 03:30:24;;;;;;;7.60;6.90;;;12.10;99.90;;;;;;5034562;28;20218;-47
2023/03/24 03:32:56;;;;;;;5.83;5.40;;;12.20;99.90;;;;;;5030918;28;20215;-49
2023/03/24 03:35:29;;;;;;;7.00;6.40;;;12.10;99.90;;;;;;5034429;28;20227;-47
2023/03/24 03:38:04;;;;;;;5.67;5.27;;;12.10;99.90;;;;;;5030758;28;20202;-48
2023/03/24 03:40:35;;;;;;;6.77;5.97;;;12.20;99.90;;;;;;5033123;28;20306;-47
2023/03/24 03:43:05;;;;;;;9.33;5.40;;;12.20;99.90;;;;;;5025927;28;20202;-49
2023/03/24 03:45:34;;;;;;;5.03;4.73;;;12.20;99.90;;;;;;5033434;28;20197;-49
2023/03/24 03:48:01;;;;;;;5.53;4.60;;;12.30;99.90;;;;;;5034168;28;20757;-47
2023/03/24 03:50:29;;;;;;;7.03;5.50;;;12.30;99.90;;;;;;5034196;28;20283;-47
2023/03/24 03:53:00;;;;;;;5.10;4.57;;;12.40;99.90;;;;;;5030733;28;20205;-47
2023/03/24 03:55:27;;;;;;;4.97;4.53;;;12.40;99.90;;;;;;5034253;28;20214;-49
2023/03/24 03:57:55;;;;;;;6.07;5.50;;;12.40;99.90;;;;;;5033183;28;20202;-48
2023/03/24 04:00:24;;;;;;;6.30;4.67;;;12.40;99.90;;;;;;5030681;28;20224;-47
2023/03/24 04:03:14;;;;;;;6.20;5.63;;;12.30;99.90;;;;;;5031885;28;20204;-47
2023/03/24 04:05:47;;;;;;;6.27;4.83;;;12.10;99.90;;;;;;5032608;28;20212;-47
2023/03/24 04:08:20;;;;;;;5.77;5.17;;;12.00;99.90;;;;;;5034045;28;20201;-47
2023/03/24 04:11:31;;;;;;;6.13;5.53;;;11.90;99.90;;;;;;5033105;28;20215;-47
2023/03/24 04:14:11;;;;;;;6.30;5.77;;;11.80;99.90;;;;;;5020262;28;20201;-47
2023/03/24 04:16:52;;;;;;;6.07;5.63;;;11.70;99.90;;;;;;5033555;28;20225;-49
2023/03/24 04:19:32;;;;;;;7.60;6.90;;;11.60;99.90;;;;;;5031876;28;20238;-48
2023/03/24 04:22:14;;;;;;;6.40;5.90;;;11.70;99.90;;;;;;5033844;28;20256;-47
2023/03/24 04:24:49;;;;;;;10.33;5.93;;;11.60;99.90;;;;;;5031195;28;20210;-47
2023/03/24 04:27:26;;;;;;;6.13;5.63;;;11.60;99.90;;;;;;5032097;28;20192;-48
2023/03/24 04:30:02;;;;;;;6.67;6.03;;;11.70;99.90;;;;;;5032321;28;20776;-47
2023/03/24 04:32:40;;;;;;;6.23;5.73;;;11.80;99.90;;;;;;5031860;28;20288;-49
2023/03/24 04:35:10;;;;;;;5.73;5.23;;;11.80;99.90;;;;;;5013201;28;20212;-48
2023/03/24 04:37:37;;;;;;;6.03;5.53;;;11.80;99.90;;;;;;5030474;28;20203;-48
2023/03/24 04:40:09;;;;;;;6.33;5.73;;;11.80;99.90;;;;;;5032195;28;20228;-48
2023/03/24 04:42:39;;;;;;;6.20;5.63;;;11.80;99.90;;;;;;5030869;28;20232;-49
2023/03/24 04:45:08;;;;;;;6.13;5.63;;;11.80;99.90;;;;;;5032395;28;20713;-48
2023/03/24 04:47:43;;;;;;;5.67;5.17;;;11.80;99.90;;;;;;5033051;28;20622;-47
2023/03/24 04:50:12;;;;;;;5.80;5.30;;;11.80;99.90;;;;;;5033005;28;20234;-48
2023/03/24 04:52:41;;;;;;;6.00;4.30;;;11.90;99.90;;;;;;5031132;28;20256;-47
2023/03/24 04:55:31;;;;;;;5.60;5.10;;;11.80;99.90;;;;;;5022041;28;20258;-48
2023/03/24 04:58:01;;;;;;;6.97;5.43;;;11.80;99.90;;;;;;5024960;28;20283;-48
2023/03/24 05:00:30;;;;;;;6.77;5.03;;;11.80;99.90;;;;;;5033038;28;20233;-48
2023/03/24 05:03:02;;;;;;;5.20;4.87;;;11.70;99.90;;;;;;5031856;28;20207;-48
2023/03/24 05:05:29;;;;;;;4.90;4.50;;;11.70;99.90;;;;;;5031700;28;20623;-48
2023/03/24 05:07:59;;;;;;;6.00;5.53;;;11.60;99.90;;;;;;5030037;28;20205;-48
2023/03/24 05:10:26;;;;;;;6.47;5.90;;;11.60;99.90;;;;;;5031951;28;20276;-48
2023/03/24 05:12:53;;;;;;;6.83;6.20;;;11.60;99.90;;;;;;5031781;28;20269;-46
2023/03/24 05:15:20;;;;;;;7.03;6.43;;;11.60;99.90;;;;;;5032641;28;20258;-48
2023/03/24 05:17:47;;;;;;;7.27;6.57;;;11.60;99.90;;;;;;5028500;28;20260;-48
2023/03/24 05:20:15;;;;;;;8.77;7.67;;;11.60;99.90;;;;;;5024464;28;20224;-47
2023/03/24 05:22:42;;;;;;;8.33;7.30;;;11.60;99.90;;;;;;5032310;28;20205;-48
2023/03/24 05:25:10;;;;;;;8.73;7.50;;;11.50;99.90;;;;;;5030761;28;20251;-48
2023/03/24 05:27:37;;;;;;;8.80;7.80;;;11.50;99.90;;;;;;5032330;28;20194;-48
2023/03/24 05:30:05;;;;;;;9.77;7.87;;;11.50;99.90;;;;;;5032325;28;20366;-48
2023/03/24 05:32:32;;;;;;;8.63;7.80;;;11.60;99.90;;;;;;5028040;28;20260;-47
2023/03/24 05:34:59;;;;;;;10.30;8.40;;;11.70;99.90;;;;;;5024818;28;20824;-47
2023/03/24 05:37:28;;;;;;;9.57;8.20;;;11.70;99.90;;;;;;5026413;28;20230;-48
2023/03/24 05:39:55;;;;;;;7.37;6.73;;;11.70;99.90;;;;;;5032154;28;20643;-48
2023/03/24 05:42:22;;;;;;;8.03;7.43;;;11.60;99.90;;;;;;5031912;28;20208;-47
2023/03/24 05:44:49;;;;;;;8.07;7.23;;;11.60;99.90;;;;;;5030476;28;20283;-48
2023/03/24 05:47:18;;;;;;;7.80;7.17;;;11.60;99.90;;;;;;5029146;28;20197;-47
2023/03/24 05:49:46;;;;;;;11.80;8.90;;;11.60;99.90;;;;;;5033680;28;20583;-48
2023/03/24 05:52:15;;;;;;;7.97;7.17;;;11.50;99.90;;;;;;5032280;28;20205;-47
2023/03/24 05:54:44;;;;;;;9.97;6.37;;;11.60;99.90;;;;;;5024379;28;20210;-48
2023/03/24 05:57:13;;;;;;;7.93;6.83;;;11.80;99.90;;;;;;5031667;28;20317;-48
2023/03/24 05:59:40;;;;;;;5.83;5.33;;;11.80;99.90;;;;;;5031851;28;20276;-48
2023/03/24 06:02:07;;;;;;;5.33;4.97;;;11.80;99.90;;;;;;5031762;28;20238;-48
2023/03/24 06:04:34;;;;;;;5.40;4.90;;;12.00;99.90;;;;;;5026240;28;20201;-48
2023/03/24 06:07:01;;;;;;;6.73;4.83;;;12.10;99.90;;;;;;5027198;28;20201;-47
2023/03/24 06:09:34;;;;;;;4.83;4.43;;;12.10;99.90;;;;;;5027518;28;20615;-46
2023/03/24 06:12:05;;;;;;;5.23;4.83;;;12.20;99.90;;;;;;5029577;28;20201;-48
2023/03/24 06:14:32;;;;;;;6.70;4.60;;;12.40;99.90;;;;;;5028808;28;20211;-48
2023/03/24 06:16:59;;;;;;;6.17;5.50;;;12.50;99.90;;;;;;5030494;28;20728;-48
2023/03/24 06:19:29;;;;;;;6.30;5.80;;;12.40;99.90;;;;;;5030424;28;20216;-47
2023/03/24 06:22:01;;;;;;;4.83;4.43;;;12.30;99.90;;;;;;5031311;28;20478;-48
2023/03/24 06:24:29;;;;;;;5.63;4.93;;;12.30;99.90;;;;;;5029956;28;20201;-47
2023/03/24 06:27:00;;;;;;;6.87;5.13;;;12.30;99.90;;;;;;5031186;28;20193;-49
2023/03/24 06:29:30;;;;;;;5.03;4.63;;;12.20;99.90;;;;;;5031598;28;20307;-46
2023/03/24 06:31:58;;;;;;;5.20;4.70;;;12.20;99.90;;;;;;5034515;28;20277;-47
2023/03/24 06:34:25;;;;;;;5.63;4.80;;;12.30;99.90;;;;;;5035040;28;20223;-46
2023/03/24 06:36:52;;;;;;;7.83;5.43;;;12.30;99.90;;;;;;5030417;28;20222;-47
2023/03/24 06:39:22;;;;;;;7.03;6.43;;;12.30;99.90;;;;;;5032139;28;20231;-47
2023/03/24 06:41:49;;;;;;;5.93;5.43;;;12.20;99.90;;;;;;5033893;28;20231;-47
2023/03/24 06:44:16;;;;;;;6.17;5.47;;;12.20;99.90;;;;;;5036889;28;20243;-47
2023/03/24 06:46:46;;;;;;;6.03;5.53;;;12.10;99.90;;;;;;5035443;28;20199;-47
2023/03/24 06:49:13;;;;;;;7.47;6.77;;;12.00;99.90;;;;;;5039720;28;20243;-47
2023/03/24 06:51:40;;;;;;;5.33;4.93;;;12.10;99.90;;;;;;5039576;28;20254;-46
2023/03/24 06:54:08;;;;;;;6.13;5.63;;;12.10;99.90;;;;;;5032774;28;20287;-47
2023/03/24 06:56:35;;;;;;;6.13;5.73;;;12.20;99.90;;;;;;5036668;28;20224;-48
2023/03/24 06:59:03;;;;;;;6.37;5.83;;;12.20;99.90;;;;;;5034669;28;20224;-47
2023/03/24 07:01:30;;;;;;;6.80;6.20;;;12.20;99.90;;;;;;5031240;28;20235;-49
2023/03/24 07:03:58;;;;;;;7.07;6.57;;;12.20;99.90;;;;;;5032180;28;20249;-47
2023/03/24 07:06:25;;;;;;;5.97;5.37;;;12.30;99.90;;;;;;5034133;28;20695;-47
2023/03/24 07:09:12;;;;;;;6.07;5.47;;;12.30;99.90;;;;;;5034330;28;20229;-46
2023/03/24 07:11:40;;;;;;;6.37;5.37;;;12.40;99.90;;;;;;5033038;28;20598;-48
2023/03/24 07:14:07;;;;;;;7.30;6.40;;;12.50;99.90;;;;;;5044404;28;20224;-48
2023/03/24 07:16:34;;;;;;;7.43;5.87;;;12.70;99.90;;;;;;5041291;28;20228;-46
2023/03/24 07:19:04;;;;;;;6.70;6.20;;;13.00;99.90;;;;;;5038947;28;20327;-48
2023/03/24 07:21:31;;;;;;;5.93;5.37;;;13.10;99.90;;;;;;5032402;28;20205;-49
2023/03/24 07:23:57;;;;;;;7.27;5.70;;;13.20;99.90;;;;;;5031883;28;20287;-46
2023/03/24 07:26:25;;;;;;;6.00;5.43;;;13.20;99.90;;;;;;5035691;28;20612;-49
2023/03/24 07:28:52;;;;;;;7.03;6.33;;;13.20;99.90;;;;;;5031497;28;20604;-47
2023/03/24 07:31:19;;;;;;;7.13;6.63;;;13.30;99.90;;;;;;5034324;28;20664;-48
2023/03/24 07:33:46;;;;;;;7.23;6.53;;;13.30;99.90;;;;;;5034833;28;20623;-47
2023/03/24 07:36:14;;;;;;;7.67;6.63;;;13.50;99.90;;;;;;5034323;28;20267;-47
2023/03/24 07:38:41;;;;;;;6.83;6.23;;;13.50;99.90;;;;;;5032555;28;20249;-49
2023/03/24 07:41:08;;;;;;;6.37;5.87;;;13.50;99.90;;;;;;5033826;28;20201;-47
2023/03/24 07:43:35;;;;;;;7.70;6.93;;;13.50;99.90;;;;;;5033695;28;20205;-48
2023/03/24 07:46:02;;;;;;;7.03;6.20;;;13.50;99.90;;;;;;5036546;28;20202;-47
2023/03/24 07:48:29;;;;;;;6.95;6.45;;;13.50;99.90;;;;;;5026698;28;20368;-47
2023/03/24 07:50:57;;;;;;;7.07;6.40;;;13.40;99.90;;;;;;5031682;28;20945;-48
2023/03/24 07:53:26;;;;;;;6.40;5.90;;;13.40;99.90;;;;;;5033434;28;20683;-49
2023/03/24 07:55:53;;;;;;;5.90;5.50;;;13.40;99.90;;;;;;5034169;28;20691;-48
2023/03/24 07:58:20;;;;;;;6.20;5.70;;;13.50;99.90;;;;;;5034114;28;20222;-47
2023/03/24 08:00:47;;;;;;;5.50;5.07;;;13.40;99.90;;;;;;5033978;28;20202;-49
2023/03/24 08:03:14;;;;;;;6.73;6.20;;;13.60;99.90;;;;;;5032657;28;20198;-48
2023/03/24 08:05:43;;;;;;;5.67;5.10;;;13.60;99.90;;;;;;5034084;28;20206;-49
2023/03/24 08:08:10;;;;;;;5.10;4.80;;;13.50;99.90;;;;;;5033730;28;20747;-48
2023/03/24 08:10:38;;;;;;;5.43;5.03;;;13.40;99.90;;;;;;5033603;28;20232;-48
2023/03/24 08:13:05;;;;;;;6.00;5.50;;;13.50;99.90;;;;;;5033587;28;20248;-48
2023/03/24 08:15:32;;;;;;;6.27;5.73;;;13.40;99.90;;;;;;5033561;28;20256;-49
2023/03/24 08:18:03;;;;;;;5.03;4.57;;;13.40;99.90;;;;;;5033488;28;20222;-48
2023/03/24 08:20:30;;;;;;;5.43;4.93;;;13.40;99.90;;;;;;5026293;28;20224;-47
2023/03/24 08:23:03;;;;;;;4.27;4.07;;;13.60;99.90;;;;;;5033160;28;20217;-48
2023/03/24 08:25:30;;;;;;;4.20;3.90;;;13.50;99.90;;;;;;5033123;28;20230;-48
2023/03/24 08:28:01;;;;;;;6.87;6.37;;;13.50;99.90;;;;;;5032200;28;20437;-49
2023/03/24 08:30:29;;;;;;;6.27;5.87;;;13.60;99.90;;;;;;5032363;28;20515;-48
2023/03/24 08:32:58;;;;;;;6.00;5.53;;;13.70;99.90;;;;;;5033449;28;20205;-49
2023/03/24 08:35:27;;;;;;;6.03;5.63;;;13.60;99.90;;;;;;5023573;28;20670;-49
2023/03/24 08:37:54;;;;;;;5.43;4.93;;;13.50;99.90;;;;;;5031566;28;20214;-50
2023/03/24 08:40:23;;;;;;;6.43;5.93;;;13.40;99.90;;;;;;5026756;28;20708;-48
2023/03/24 08:42:52;;;;;;;5.53;5.03;;;13.30;99.90;;;;;;5030563;28;20203;-48
2023/03/24 08:45:22;;;;;;;6.07;5.57;;;13.20;99.90;;;;;;5032432;28;20245;-49
2023/03/24 08:47:51;;;;;;;7.53;6.13;;;13.20;99.90;;;;;;5025476;28;20252;-48
2023/03/24 08:50:20;;;;;;;6.90;6.33;;;13.20;99.90;;;;;;5022735;28;20285;-50
2023/03/24 08:52:47;;;;;;;5.93;5.43;;;13.30;99.90;;;;;;5033028;28;20810;-48
2023/03/24 08:55:15;;;;;;;6.67;5.97;;;13.30;99.90;;;;;;5032622;28;20297;-49
2023/03/24 08:57:42;;;;;;;7.13;5.60;;;13.30;99.90;;;;;;5032960;28;20260;-49
2023/03/24 09:00:14;;;;;;;6.40;5.80;;;13.30;99.90;;;;;;5032995;28;20230;-49
2023/03/24 09:02:43;;;;;;;7.50;6.80;;;13.20;99.90;;;;;;5032085;28;20204;-48
2023/03/24 09:05:11;;;;;;;9.13;8.23;;;13.20;99.90;;;;;;5025650;28;20195;-48
2023/03/24 09:07:38;;;;;;;9.27;8.47;;;13.30;99.90;;;;;;5032949;28;20197;-46
2023/03/24 09:10:07;;;;;;;9.27;8.47;;;13.30;99.90;;;;;;5031302;28;20226;-49
2023/03/24 09:12:35;;;;;;;8.13;7.33;;;13.30;99.90;;;;;;5032610;28;20234;-48
2023/03/24 09:15:02;;;;;;;7.10;6.50;;;13.30;99.90;;;;;;5032074;28;20210;-46
2023/03/24 09:17:29;;;;;;;8.40;7.50;;;13.10;99.90;;;;;;5031672;28;20270;-45
2023/03/24 09:19:57;;;;;;;7.97;7.20;;;13.10;99.90;;;;;;5032483;28;20249;-48
2023/03/24 09:22:25;;;;;;;8.73;7.60;;;13.20;99.90;;;;;;5032488;28;20259;-49
2023/03/24 09:24:52;;;;;;;7.97;7.17;;;13.20;99.90;;;;;;5031871;28;20206;-49
2023/03/24 09:27:19;;;;;;;11.50;7.83;;;13.10;99.90;;;;;;5032375;28;20255;-49
2023/03/24 09:29:46;;;;;;;9.00;8.00;;;13.10;99.90;;;;;;5032316;28;20712;-49
2023/03/24 09:32:13;;;;;;;7.97;7.27;;;13.10;99.90;;;;;;5032322;28;20198;-48
2023/03/24 09:34:40;;;;;;;12.07;8.33;;;13.10;99.90;;;;;;5030735;28;20240;-48
2023/03/24 09:37:09;;;;;;;9.43;8.63;;;13.30;99.90;;;;;;5032148;28;20214;-49
2023/03/24 09:39:36;;;;;;;8.17;7.43;;;13.40;99.90;;;;;;5032050;28;20279;-49
2023/03/24 09:42:05;;;;;;;7.80;7.17;;;13.50;99.90;;;;;;5032157;28;20205;-49
2023/03/24 09:44:36;;;;;;;6.37;5.97;;;13.50;99.90;;;;;;5031862;28;20199;-49
2023/03/24 09:47:13;;;;;;;7.13;6.50;;;13.70;99.90;;;;;;5034197;28;20206;-48
2023/03/24 09:49:43;;;;;;;5.80;5.30;;;13.80;99.90;;;;;;5031204;28;20226;-47
2023/03/24 09:52:13;;;;;;;5.63;5.13;;;13.90;99.90;;;;;;5031896;28;20734;-50
2023/03/24 09:54:46;;;;;;;5.80;5.40;;;14.00;99.90;;;;;;5031596;28;20669;-48
2023/03/24 09:57:20;;;;;;;6.03;5.43;;;14.10;99.90;;;;;;5029736;28;20229;-48
2023/03/24 09:59:47;;;;;;;6.00;5.40;;;14.10;99.90;;;;;;5031742;28;20218;-47
2023/03/24 10:02:16;;;;;;;6.27;5.17;;;14.10;99.90;;;;;;5030808;28;20201;-50
2023/03/24 10:04:43;;;;;;;7.23;6.27;;;14.30;99.90;;;;;;5031231;28;20260;-46
2023/03/24 10:07:23;;;;;;;7.10;6.40;;;14.40;99.90;;;;;;5029898;28;20248;-49
2023/03/24 10:09:56;;;;;;;8.13;5.50;;;14.60;99.90;;;;;;5031718;28;20305;-46
2023/03/24 10:12:34;;;;;;;5.63;5.13;;;14.80;99.90;;;;;;5031665;28;20198;-48
2023/03/24 10:15:14;;;;;;;5.45;5.05;;;14.80;99.90;;;;;;5030197;28;20092;-47
2023/03/24 10:17:51;;;;;;;6.90;6.27;;;14.70;99.90;;;;;;5027992;28;20237;-47
2023/03/24 10:20:31;;;;;;;6.57;6.07;;;14.70;99.90;;;;;;5031382;28;20222;-47
2023/03/24 10:23:13;;;;;;;7.67;6.90;;;14.70;99.90;;;;;;5030555;28;20614;-46
2023/03/24 10:25:48;;;;;;;7.50;6.90;;;14.70;99.90;;;;;;5028512;28;20195;-47
2023/03/24 10:28:19;;;;;;;8.77;8.03;;;14.70;99.90;;;;;;5031597;28;20220;-47
2023/03/24 10:30:49;;;;;;;11.53;8.60;;;14.70;99.90;;;;;;5031396;28;20207;-46
2023/03/24 10:33:17;;;;;;;9.77;7.20;;;14.70;99.90;;;;;;5030661;28;20285;-46
2023/03/24 10:36:01;;;;;;;6.83;6.27;;;14.80;99.90;;;;;;5029714;28;20290;-46
2023/03/24 10:38:29;;;;;;;7.47;6.87;;;14.80;99.90;;;;;;5031430;28;20276;-47
2023/03/24 10:40:56;;;;;;;8.43;7.67;;;14.60;99.90;;;;;;5031513;28;20203;-47
2023/03/24 10:43:25;;;;;;;7.20;5.90;;;14.60;99.90;;;;;;5028768;28;20270;-47
2023/03/24 10:45:55;;;;;;;6.70;6.00;;;14.50;99.90;;;;;;5030089;28;20615;-47
2023/03/24 10:48:41;;;;;;;8.07;5.93;;;14.30;99.90;;;;;;5029932;28;20734;-46
2023/03/24 10:51:14;;;;;;;6.03;5.40;;;14.10;99.90;;;;;;5024612;28;20201;-46
2023/03/24 10:53:42;;;;;;;6.50;5.90;;;14.10;99.90;;;;;;5030628;28;20297;-47
2023/03/24 10:56:16;;;;;;;6.23;5.63;;;14.20;99.90;;;;;;5031341;28;20242;-47
2023/03/24 10:58:44;;;;;;;5.90;5.47;;;14.20;99.90;;;;;;5030976;28;20226;-46
2023/03/24 11:01:23;;;;;;;5.47;5.03;;;14.10;99.90;;;;;;5031138;28;20206;-47
2023/03/24 11:03:51;;;;;;;5.43;5.00;;;14.00;99.90;;;;;;5031795;28;20210;-46
2023/03/24 11:06:20;;;;;;;6.27;5.70;;;14.00;99.90;;;;;;5031286;28;20206;-46
2023/03/24 11:09:09;;;;;;;5.97;5.40;;;13.90;99.90;;;;;;5030953;28;20283;-47
2023/03/24 11:11:36;;;;;;;5.63;5.20;;;13.80;99.90;;;;;;5033186;28;20203;-47
2023/03/24 11:14:04;;;;;;;5.77;5.43;;;13.90;99.90;;;;;;5034044;28;20201;-47
2023/03/24 11:16:32;;;;;;;5.50;5.00;;;13.80;99.90;;;;;;5034668;28;20253;-47
2023/03/24 11:19:01;;;;;;;6.17;5.60;;;13.60;99.90;;;;;;5033449;28;20283;-48
2023/03/24 11:21:29;;;;;;;10.00;8.63;;;13.60;99.90;;;;;;5034828;28;20237;-49
2023/03/24 11:24:01;;;;;;;6.03;5.73;;;13.50;99.90;;;;;;5032619;28;20268;-48
2023/03/24 11:26:34;;;;;;;5.73;5.23;;;13.60;99.90;;;;;;5034659;28;20190;-48
2023/03/24 11:29:05;;;;;;;7.30;6.77;;;13.60;99.90;;;;;;5032606;28;20217;-48
2023/03/24 11:31:37;;;;;;;8.13;7.33;;;13.50;99.90;;;;;;5033404;28;20620;-48
2023/03/24 11:34:09;;;;;;;7.20;6.53;;;13.50;99.90;;;;;;5029039;28;20206;-47
2023/03/24 11:36:47;;;;;;;5.63;5.13;;;13.40;99.90;;;;;;5032090;28;20206;-47
2023/03/24 11:39:18;;;;;;;6.20;5.77;;;13.30;99.90;;;;;;5032133;28;20694;-48
2023/03/24 11:41:58;;;;;;;5.70;5.17;;;13.30;99.90;;;;;;5031997;28;20260;-49
2023/03/24 11:44:26;;;;;;;5.93;5.53;;;13.30;99.90;;;;;;5033512;28;20197;-47
2023/03/24 11:46:57;;;;;;;6.17;5.60;;;13.10;99.90;;;;;;5031809;28;20203;-49
2023/03/24 11:49:29;;;;;;;6.10;5.60;;;13.10;99.90;;;;;;5034086;28;20225;-48
2023/03/24 11:51:56;;;;;;;5.93;5.10;;;13.10;99.90;;;;;;5034324;28;20206;-48
2023/03/24 11:54:29;;;;;;;6.80;6.27;;;13.00;99.90;;;;;;5033392;28;20705;-47
2023/03/24 11:56:59;;;;;;;5.73;5.23;;;12.90;99.90;;;;;;5030041;28;20659;-47
2023/03/24 11:59:33;;;;;;;5.80;5.30;;;13.00;99.90;;;;;;5031669;28;20232;-48
2023/03/24 12:02:11;;;;;;;7.23;6.57;;;13.10;99.90;;;;;;5033911;28;20198;-47
2023/03/24 12:04:48;;;;;;;5.87;5.37;;;13.00;99.90;;;;;;5032895;28;20259;-48
2023/03/24 12:08:02;;;;;;;7.37;6.63;;;13.00;99.90;;;;;;5031632;28;20211;-47
2023/03/24 12:10:58;;;;;;;6.90;6.37;;;12.90;99.90;;;;;;5000792;28;20229;-48
2023/03/24 12:13:33;;;;;;;7.47;6.27;;;12.90;99.90;;;;;;5029175;28;20197;-48
2023/03/24 12:16:28;;;;;;;7.20;6.60;;;12.90;99.90;;;;;;5024666;28;20204;-48
2023/03/24 12:19:30;;;;;;;6.70;6.10;;;12.90;99.90;;;;;;5029994;28;20227;-49
2023/03/24 12:22:06;;;;;;;6.43;5.07;;;13.00;99.90;;;;;;5022193;28;20198;-48
2023/03/24 12:24:57;;;;;;;5.53;5.13;;;13.10;99.90;;;;;;5033174;28;20240;-48
2023/03/24 12:27:32;;;;;;;6.60;6.00;;;13.20;99.90;;;;;;5031933;28;20276;-47
2023/03/24 12:30:04;;;;;;;7.80;7.10;;;13.30;99.90;;;;;;5023745;28;20297;-48
2023/03/24 12:32:47;;;;;;;8.27;7.47;;;13.30;99.90;;;;;;5033236;28;20660;-49
2023/03/24 12:35:37;;;;;;;6.70;6.10;;;13.40;99.90;;;;;;5031905;28;20200;-48
2023/03/24 12:38:34;;;;;;;6.57;5.77;;;13.40;99.90;;;;;;5027242;28;20255;-47
2023/03/24 12:41:30;;;;;;;5.90;5.50;;;13.30;99.90;;;;;;5013466;28;20206;-49
2023/03/24 12:44:19;;;;;;;7.70;6.47;;;13.30;99.90;;;;;;5009287;28;20205;-48
2023/03/24 12:46:56;;;;;;;7.40;6.70;;;13.40;99.90;;;;;;5025639;28;20208;-48
2023/03/24 12:49:52;;;;;;;7.23;6.63;;;13.40;99.90;;;;;;5033099;28;20222;-48
2023/03/24 12:52:43;;;;;;;6.87;6.27;;;13.30;99.90;;;;;;5033289;28;20290;-47
2023/03/24 12:55:16;;;;;;;7.90;7.20;;;13.20;99.90;;;;;;5029712;28;20206;-48
2023/03/24 12:57:49;;;;;;;6.30;5.70;;;13.20;99.90;;;;;;5033027;28;20206;-48
2023/03/24 13:00:23;;;;;;;6.30;5.20;;;13.30;99.90;;;;;;5033006;28;20220;-47
2023/03/24 13:02:54;;;;;;;6.50;5.50;;;13.30;99.90;;;;;;5031570;28;20293;-48
2023/03/24 13:05:27;;;;;;;5.50;5.10;;;13.40;99.90;;;;;;5032126;28;20201;-48
2023/03/24 13:08:02;;;;;;;4.40;4.20;;;13.30;99.90;;;;;;5032684;28;20258;-47
2023/03/24 13:10:33;;;;;;;5.43;4.93;;;13.30;99.90;;;;;;5022173;28;20698;-48